createdAt,value
2018-11-02T00:00:25.927Z,8.40
2018-11-02T00:03:37.979Z,8.40
2018-11-02T00:06:49.756Z,8.40
2018-11-02T00:10:01.846Z,8.30
2018-11-02T00:13:14.592Z,8.30
2018-11-02T00:16:27.506Z,8.20
2018-11-02T00:19:39.625Z,8.20
2018-11-02T00:22:51.560Z,8.20
2018-11-02T00:26:03.259Z,8.10
2018-11-02T00:29:15.261Z,8.00
2018-11-02T00:32:26.855Z,7.80
2018-11-02T00:35:38.618Z,8.00
2018-11-02T00:38:50.525Z,7.90
2018-11-02T00:42:03.301Z,7.80
2018-11-02T00:45:16.246Z,7.90
2018-11-02T00:48:28.219Z,7.80
2018-11-02T00:51:40.228Z,7.80
2018-11-02T00:54:52.039Z,7.60
2018-11-02T00:58:03.986Z,7.60
2018-11-02T01:01:16.456Z,7.60
2018-11-02T01:04:28.252Z,7.60
2018-11-02T01:07:40.435Z,7.60
2018-11-02T01:10:53.200Z,7.50
2018-11-02T01:14:06.201Z,7.60
2018-11-02T01:17:18.653Z,7.60
2018-11-02T01:20:31.423Z,7.60
2018-11-02T01:23:44.156Z,7.50
2018-11-02T01:26:57.250Z,7.50
2018-11-02T01:30:09.563Z,7.50
2018-11-02T01:33:25.469Z,7.50
2018-11-02T01:36:38.356Z,7.50
2018-11-02T01:39:50.187Z,7.60
2018-11-02T01:43:02.033Z,7.60
2018-11-02T01:46:14.778Z,7.60
2018-11-02T01:49:26.607Z,7.40
2018-11-02T01:52:38.466Z,7.50
2018-11-02T01:55:50.963Z,7.40
2018-11-02T01:59:03.939Z,7.40
2018-11-02T02:02:16.393Z,7.30
2018-11-02T02:05:29.562Z,7.10
2018-11-02T02:08:42.238Z,7.20
2018-11-02T02:11:55.918Z,7.00
2018-11-02T02:15:10.934Z,7.00
2018-11-02T02:18:23.476Z,7.00
2018-11-02T02:21:36.259Z,7.00
2018-11-02T02:24:48.924Z,7.30
2018-11-02T02:28:00.911Z,7.50
2018-11-02T02:31:13.560Z,7.60
2018-11-02T02:34:25.131Z,7.80
2018-11-02T02:37:37.614Z,8.00
2018-11-02T02:40:50.182Z,8.20
2018-11-02T02:44:04.188Z,8.40
2018-11-02T02:47:16.632Z,8.40
2018-11-02T02:50:29.794Z,8.50
2018-11-02T02:53:42.589Z,8.60
2018-11-02T02:56:55.141Z,8.70
2018-11-02T03:00:12.625Z,8.70
2018-11-02T03:03:25.106Z,8.80
2018-11-02T03:06:38.151Z,8.80
2018-11-02T03:09:50.789Z,8.90
2018-11-02T03:13:03.376Z,8.80
2018-11-02T03:16:15.961Z,8.90
2018-11-02T03:19:29.143Z,8.90
2018-11-02T03:22:41.939Z,9.10
2018-11-02T03:25:54.900Z,9.10
2018-11-02T03:29:07.532Z,9.00
2018-11-02T03:32:20.048Z,9.10
2018-11-02T03:35:32.891Z,9.10
2018-11-02T03:38:45.687Z,9.00
2018-11-02T03:41:58.240Z,8.90
2018-11-02T03:45:11.310Z,8.80
2018-11-02T03:48:24.304Z,8.80
2018-11-02T03:51:37.135Z,8.70
2018-11-02T03:54:49.777Z,8.60
2018-11-02T03:58:02.836Z,8.60
2018-11-02T04:01:16.090Z,8.60
2018-11-02T04:04:28.302Z,8.50
2018-11-02T04:07:40.930Z,8.40
2018-11-02T04:10:53.929Z,8.40
2018-11-02T04:14:06.652Z,8.30
2018-11-02T04:17:19.164Z,8.20
2018-11-02T04:20:31.947Z,8.10
2018-11-02T04:23:44.573Z,8.00
2018-11-02T04:26:57.496Z,8.00
2018-11-02T04:30:10.806Z,8.10
2018-11-02T04:33:22.811Z,8.10
2018-11-02T04:36:41.700Z,8.00
2018-11-02T04:39:54.310Z,8.00
2018-11-02T04:43:07.535Z,7.80
2018-11-02T04:46:19.007Z,7.70
2018-11-02T04:49:36.991Z,7.70
2018-11-02T04:52:47.900Z,7.70
2018-11-02T04:55:59.955Z,7.70
2018-11-02T04:59:12.864Z,7.60
2018-11-02T05:02:25.445Z,7.60
2018-11-02T05:05:36.550Z,7.60
2018-11-02T05:08:48.396Z,7.60
2018-11-02T05:12:00.280Z,7.60
2018-11-02T05:15:12.108Z,7.50
2018-11-02T05:18:23.964Z,7.60
2018-11-02T05:21:35.781Z,7.60
2018-11-02T05:24:47.801Z,7.60
2018-11-02T05:27:59.417Z,7.50
2018-11-02T05:31:11.509Z,7.50
2018-11-02T05:34:23.250Z,7.50
2018-11-02T05:37:35.072Z,7.40
2018-11-02T05:40:46.271Z,7.40
2018-11-02T05:43:57.681Z,7.40
2018-11-02T05:47:08.778Z,7.30
2018-11-02T05:50:20.671Z,7.30
2018-11-02T05:53:31.729Z,7.20
2018-11-02T05:56:43.493Z,7.10
2018-11-02T05:59:54.482Z,7.20
2018-11-02T06:03:06.947Z,7.00
2018-11-02T06:06:19.003Z,7.10
2018-11-02T06:09:30.685Z,7.10
2018-11-02T06:12:42.780Z,7.10
2018-11-02T06:15:54.730Z,7.10
2018-11-02T06:19:06.710Z,7.10
2018-11-02T06:22:19.466Z,7.10
2018-11-02T06:25:32.403Z,7.10
2018-11-02T06:28:44.670Z,7.00
2018-11-02T06:31:56.677Z,6.90
2018-11-02T06:35:09.936Z,6.90
2018-11-02T06:38:23.138Z,6.80
2018-11-02T06:41:34.964Z,6.80
2018-11-02T06:44:47.153Z,6.80
2018-11-02T06:47:59.155Z,6.80
2018-11-02T06:51:12.101Z,6.90
2018-11-02T06:54:24.553Z,7.00
2018-11-02T06:57:36.293Z,7.00
2018-11-02T07:00:48.254Z,7.10
2018-11-02T07:04:01.147Z,7.10
2018-11-02T07:07:13.211Z,7.20
2018-11-02T07:10:25.814Z,7.30
2018-11-02T07:13:37.712Z,7.40
2018-11-02T07:16:49.735Z,7.50
2018-11-02T07:20:01.642Z,7.60
2018-11-02T07:23:14.622Z,7.60
2018-11-02T07:26:27.309Z,7.70
2018-11-02T07:29:39.347Z,7.80
2018-11-02T07:32:51.011Z,7.90
2018-11-02T07:36:03.081Z,7.90
2018-11-02T07:39:15.927Z,8.00
2018-11-02T07:42:28.161Z,8.10
2018-11-02T07:45:39.984Z,8.10
2018-11-02T07:48:52.744Z,8.20
2018-11-02T07:52:04.567Z,8.30
2018-11-02T07:55:17.449Z,8.30
2018-11-02T07:58:30.018Z,8.30
2018-11-02T08:01:42.033Z,8.40
2018-11-02T08:04:54.989Z,8.50
2018-11-02T08:08:07.137Z,8.50
2018-11-02T08:11:19.534Z,8.60
2018-11-02T08:14:32.349Z,8.60
2018-11-02T08:17:44.972Z,8.70
2018-11-02T08:20:57.148Z,8.70
2018-11-02T08:24:09.533Z,8.80
2018-11-02T08:27:21.401Z,8.80
2018-11-02T08:30:33.863Z,8.80
2018-11-02T08:33:46.625Z,8.90
2018-11-02T08:36:58.787Z,9.00
2018-11-02T08:40:12.573Z,9.10
2018-11-02T08:43:24.838Z,9.20
2018-11-02T08:46:36.548Z,9.30
2018-11-02T08:49:49.539Z,9.50
2018-11-02T08:53:02.154Z,9.60
2018-11-02T08:56:15.103Z,9.70
2018-11-02T08:59:27.505Z,9.80
2018-11-02T09:02:40.180Z,9.80
2018-11-02T09:05:52.943Z,9.90
2018-11-02T09:09:05.976Z,9.90
2018-11-02T09:12:18.034Z,10.00
2018-11-02T09:15:29.898Z,10.10
2018-11-02T09:18:41.882Z,10.20
2018-11-02T09:21:53.752Z,10.20
2018-11-02T09:25:08.835Z,10.30
2018-11-02T09:28:21.462Z,10.40
2018-11-02T09:31:33.570Z,10.50
2018-11-02T09:34:46.224Z,10.70
2018-11-02T09:37:58.465Z,10.80
2018-11-02T09:41:11.820Z,10.80
2018-11-02T09:44:23.540Z,10.90
2018-11-02T09:47:35.804Z,10.90
2018-11-02T09:50:48.729Z,11.00
2018-11-02T09:54:02.276Z,11.00
2018-11-02T09:57:15.368Z,11.00
2018-11-02T10:00:27.431Z,11.10
2018-11-02T10:03:40.362Z,11.00
2018-11-02T10:06:54.176Z,11.00
2018-11-02T10:10:08.111Z,11.00
2018-11-02T10:13:20.554Z,11.00
2018-11-02T10:16:33.645Z,11.00
2018-11-02T10:19:46.083Z,11.10
2018-11-02T10:22:58.933Z,11.00
2018-11-02T10:26:11.913Z,11.00
2018-11-02T10:29:24.506Z,11.00
2018-11-02T10:32:37.386Z,11.20
2018-11-02T10:35:52.722Z,11.30
2018-11-02T10:39:07.504Z,11.40
2018-11-02T10:42:20.427Z,11.40
2018-11-02T10:45:37.468Z,11.30
2018-11-02T10:48:50.424Z,11.40
2018-11-02T10:52:04.196Z,11.40
2018-11-02T10:55:17.471Z,11.50
2018-11-02T10:58:29.669Z,11.60
2018-11-02T11:02:45.385Z,11.60
2018-11-02T11:05:58.737Z,11.70
2018-11-02T11:09:13.750Z,11.70
2018-11-02T11:12:26.769Z,11.70
2018-11-02T11:15:39.258Z,11.80
2018-11-02T11:18:52.768Z,11.80
2018-11-02T11:22:06.268Z,12.00
2018-11-02T11:25:19.743Z,11.90
2018-11-02T11:28:32.986Z,12.00
2018-11-02T11:31:45.524Z,12.10
2018-11-02T11:34:58.626Z,12.00
2018-11-02T11:38:11.183Z,12.20
2018-11-02T11:41:25.576Z,12.10
2018-11-02T11:44:38.829Z,12.10
2018-11-02T11:47:51.582Z,12.00
2018-11-02T11:51:04.401Z,12.10
2018-11-02T11:54:17.238Z,12.00
2018-11-02T11:57:32.459Z,12.00
2018-11-02T12:00:43.949Z,12.00
2018-11-02T12:03:56.178Z,12.00
2018-11-02T12:07:07.856Z,12.00
2018-11-02T12:10:22.646Z,12.10
2018-11-02T12:13:35.297Z,12.20
2018-11-02T12:16:47.617Z,12.10
2018-11-02T12:19:59.090Z,12.20
2018-11-02T12:23:11.185Z,12.20
2018-11-02T12:26:22.572Z,12.40
2018-11-02T12:29:34.779Z,12.40
2018-11-02T12:32:47.052Z,12.40
2018-11-02T12:35:59.258Z,12.50
2018-11-02T12:39:10.973Z,12.50
2018-11-02T12:42:22.356Z,12.40
2018-11-02T12:45:33.648Z,12.30
2018-11-02T12:48:45.435Z,12.40
2018-11-02T12:52:04.385Z,12.40
2018-11-02T12:55:16.810Z,12.60
2018-11-02T12:58:27.943Z,12.80
2018-11-02T13:01:40.009Z,13.00
2018-11-02T13:04:51.833Z,13.10
2018-11-02T13:08:03.042Z,12.90
2018-11-02T13:11:15.020Z,13.00
2018-11-02T13:14:26.541Z,13.10
2018-11-02T13:17:40.046Z,13.20
2018-11-02T13:20:53.174Z,13.40
2018-11-02T13:24:06.859Z,13.30
2018-11-02T13:27:20.029Z,13.40
2018-11-02T13:30:33.064Z,13.50
2018-11-02T13:33:46.090Z,13.40
2018-11-02T13:36:59.269Z,13.30
2018-11-02T13:40:14.252Z,13.30
2018-11-02T13:43:29.107Z,13.40
2018-11-02T13:46:42.522Z,13.40
2018-11-02T13:49:55.220Z,13.30
2018-11-02T13:53:08.438Z,13.30
2018-11-02T13:56:21.539Z,13.30
2018-11-02T13:59:35.940Z,13.20
2018-11-02T14:02:48.543Z,13.00
2018-11-02T14:06:01.881Z,12.90
2018-11-02T14:09:15.039Z,13.00
2018-11-02T14:12:27.774Z,12.90
2018-11-02T14:15:40.491Z,12.60
2018-11-02T14:18:53.164Z,12.60
2018-11-02T14:22:05.617Z,12.70
2018-11-02T14:25:17.935Z,12.60
2018-11-02T14:28:30.571Z,12.50
2018-11-02T14:31:43.249Z,12.30
2018-11-02T14:34:54.645Z,12.50
2018-11-02T14:38:06.984Z,12.40
2018-11-02T14:41:19.373Z,12.30
2018-11-02T14:44:33.009Z,12.10
2018-11-02T14:47:45.755Z,12.00
2018-11-02T14:50:57.573Z,12.00
2018-11-02T14:54:09.995Z,12.00
2018-11-02T14:57:22.717Z,12.00
2018-11-02T15:00:34.372Z,12.00
2018-11-02T15:03:45.609Z,11.90
2018-11-02T15:06:58.834Z,11.90
2018-11-02T15:10:10.869Z,11.90
2018-11-02T15:13:23.042Z,11.90
2018-11-02T15:16:34.381Z,11.80
2018-11-02T15:19:46.281Z,11.70
2018-11-02T15:22:58.811Z,11.70
2018-11-02T15:26:16.212Z,11.80
2018-11-02T15:29:27.930Z,11.70
2018-11-02T15:32:42.568Z,11.70
2018-11-02T15:35:55.510Z,11.70
2018-11-02T15:39:15.628Z,11.70
2018-11-02T15:42:27.852Z,11.60
2018-11-02T15:45:42.406Z,11.40
2018-11-02T15:48:55.479Z,11.50
2018-11-02T15:52:08.592Z,11.60
2018-11-02T15:55:22.377Z,11.50
2018-11-02T15:58:35.910Z,11.50
2018-11-02T16:01:51.528Z,11.30
2018-11-02T16:05:04.768Z,11.30
2018-11-02T16:08:19.372Z,11.30
2018-11-02T16:11:31.900Z,11.20
2018-11-02T16:14:45.680Z,11.20
2018-11-02T16:17:58.702Z,11.00
2018-11-02T16:21:10.670Z,11.10
2018-11-02T16:24:21.701Z,11.10
2018-11-02T16:27:33.426Z,11.20
2018-11-02T16:30:46.281Z,11.10
2018-11-02T16:34:03.604Z,11.00
2018-11-02T16:37:17.108Z,11.00
2018-11-02T16:40:30.996Z,10.90
2018-11-02T16:43:43.568Z,10.90
2018-11-02T16:46:55.902Z,10.90
2018-11-02T16:50:08.504Z,10.90
2018-11-02T16:53:20.513Z,10.90
2018-11-02T16:56:31.787Z,10.80
2018-11-02T16:59:44.129Z,10.80
2018-11-02T17:02:56.507Z,10.80
2018-11-02T17:06:08.351Z,10.70
2018-11-02T17:09:23.840Z,10.60
2018-11-02T17:12:36.511Z,10.60
2018-11-02T17:15:50.239Z,10.40
2018-11-02T17:19:03.383Z,10.40
2018-11-02T17:22:15.570Z,10.30
2018-11-02T17:25:27.524Z,10.30
2018-11-02T17:28:40.261Z,10.30
2018-11-02T17:31:52.273Z,10.20
2018-11-02T17:35:04.919Z,10.20
2018-11-02T17:38:16.231Z,10.20
2018-11-02T17:41:28.466Z,10.20
2018-11-02T17:44:40.485Z,10.00
2018-11-02T17:47:51.794Z,10.00
2018-11-02T17:51:03.709Z,9.90
2018-11-02T17:54:15.574Z,9.90
2018-11-02T17:57:27.237Z,9.90
2018-11-02T18:00:39.404Z,9.90
2018-11-02T18:03:51.130Z,9.80
2018-11-02T18:07:02.842Z,9.80
2018-11-02T18:17:41.004Z,9.80
2018-11-02T18:20:55.920Z,9.60
2018-11-02T18:24:07.803Z,9.50
2018-11-02T18:27:23.630Z,9.50
2018-11-02T18:30:34.941Z,9.60
2018-11-02T18:33:47.017Z,9.60
2018-11-02T18:36:58.729Z,9.50
2018-11-02T18:40:12.469Z,9.50
2018-11-02T18:43:24.393Z,9.50
2018-11-02T18:46:36.892Z,9.50
2018-11-02T18:49:48.150Z,9.50
2018-11-02T18:52:59.976Z,9.30
2018-11-02T18:56:11.676Z,9.30
2018-11-02T18:59:23.084Z,9.10
2018-11-02T19:02:35.271Z,9.20
2018-11-02T19:05:47.122Z,9.20
2018-11-02T19:08:58.895Z,9.30
2018-11-02T19:12:10.700Z,9.30
2018-11-02T19:15:22.521Z,9.40
2018-11-02T19:18:34.646Z,9.30
2018-11-02T19:21:46.509Z,9.30
2018-11-02T19:24:58.382Z,9.20
2018-11-02T19:28:10.124Z,9.30
2018-11-02T19:31:22.690Z,9.20
2018-11-02T19:34:34.700Z,9.30
2018-11-02T19:37:46.764Z,9.40
2018-11-02T19:40:59.551Z,9.30
2018-11-02T19:44:11.946Z,9.30
2018-11-02T19:47:24.805Z,9.30
2018-11-02T19:50:36.895Z,9.20
2018-11-02T20:04:56.076Z,9.20
2018-11-02T20:08:08.404Z,9.20
2018-11-02T20:11:20.382Z,9.20
2018-11-02T20:14:32.471Z,9.20
2018-11-02T20:17:44.920Z,9.10
2018-11-02T20:20:57.916Z,9.00
2018-11-02T20:24:09.545Z,9.10
2018-11-02T20:27:21.981Z,9.10
2018-11-02T20:30:34.330Z,9.10
2018-11-02T20:33:46.274Z,9.20
2018-11-02T20:36:58.545Z,9.20
2018-11-02T20:40:15.055Z,9.20
2018-11-02T20:43:26.985Z,9.10
2018-11-02T20:46:40.858Z,9.00
2018-11-02T20:49:53.209Z,9.00
2018-11-02T20:53:06.029Z,9.00
2018-11-02T20:56:19.177Z,9.20
2018-11-02T20:59:31.591Z,9.20
2018-11-02T21:02:44.255Z,9.10
2018-11-02T21:05:56.090Z,9.00
2018-11-02T21:09:17.554Z,9.10
2018-11-02T21:12:29.881Z,9.10
2018-11-02T21:15:42.233Z,9.00
2018-11-02T21:18:53.606Z,8.90
2018-11-02T21:22:13.375Z,8.80
2018-11-02T21:25:24.972Z,8.80
2018-11-02T21:28:36.491Z,8.80
2018-11-02T21:31:49.659Z,8.80
2018-11-02T21:35:02.018Z,8.90
2018-11-02T21:38:14.924Z,8.80
2018-11-02T21:41:27.694Z,8.80
2018-11-02T21:44:39.756Z,8.90
2018-11-02T21:47:51.499Z,8.90
2018-11-02T21:51:03.384Z,8.80
2018-11-02T21:54:15.185Z,8.80
2018-11-02T21:57:27.344Z,8.60
2018-11-02T22:00:39.002Z,8.60
2018-11-02T22:03:50.958Z,8.70
2018-11-02T22:07:03.040Z,8.80
2018-11-02T22:10:14.646Z,8.70
2018-11-02T22:13:26.820Z,8.80
2018-11-02T22:16:38.369Z,8.70
2018-11-02T22:19:50.041Z,8.60
2018-11-02T22:23:02.855Z,8.60
2018-11-02T22:26:15.679Z,8.60
2018-11-02T22:29:28.549Z,8.60
2018-11-02T22:32:40.525Z,8.60
2018-11-02T22:35:52.120Z,8.70
2018-11-02T22:39:04.109Z,8.60
2018-11-02T22:42:15.735Z,8.60
2018-11-02T22:45:27.704Z,8.60
2018-11-02T22:48:39.467Z,8.60
2018-11-02T22:51:51.260Z,8.40
2018-11-02T22:55:02.331Z,8.40
2018-11-02T22:58:14.326Z,8.50
2018-11-02T23:01:27.137Z,8.50
2018-11-02T23:04:39.031Z,8.50
2018-11-02T23:07:51.051Z,8.50
2018-11-02T23:11:05.666Z,8.50
2018-11-02T23:14:17.782Z,8.60
2018-11-02T23:17:31.277Z,8.50
2018-11-02T23:20:42.627Z,8.40
2018-11-02T23:23:54.849Z,8.40
2018-11-02T23:27:06.688Z,8.50
2018-11-02T23:30:18.958Z,8.40
2018-11-02T23:33:31.269Z,8.30
2018-11-02T23:36:42.932Z,8.30
2018-11-02T23:39:54.648Z,8.40
2018-11-02T23:43:05.907Z,8.40
2018-11-02T23:46:17.720Z,8.40
2018-11-02T23:49:29.464Z,8.40
2018-11-02T23:52:41.372Z,8.40
2018-11-02T23:55:53.352Z,8.30
2018-11-02T23:59:05.317Z,8.30
